createdAt,value
2022-09-12T00:02:01.696Z,1
2022-09-12T00:12:01.787Z,1
2022-09-12T00:22:01.648Z,1
2022-09-12T00:32:01.775Z,1
2022-09-12T00:42:01.654Z,1
2022-09-12T00:52:01.768Z,1
2022-09-12T01:02:01.691Z,1
2022-09-12T01:12:01.765Z,1
2022-09-12T01:22:01.624Z,1
2022-09-12T01:32:01.808Z,1
2022-09-12T01:42:01.842Z,1
2022-09-12T01:52:01.763Z,1
2022-09-12T02:02:01.852Z,1
2022-09-12T02:12:01.753Z,1
2022-09-12T02:22:01.821Z,1
2022-09-12T02:32:01.747Z,1
2022-09-12T02:42:01.827Z,1
2022-09-12T02:52:01.738Z,1
2022-09-12T03:02:01.862Z,1
2022-09-12T03:12:01.926Z,1
2022-09-12T03:22:01.819Z,1
2022-09-12T03:32:01.943Z,1
2022-09-12T03:42:01.801Z,1
2022-09-12T03:52:01.930Z,1
2022-09-12T04:02:01.846Z,1
2022-09-12T04:12:01.927Z,1
2022-09-12T04:22:02.004Z,1
2022-09-12T04:32:01.928Z,1
2022-09-12T04:42:01.996Z,1
2022-09-12T04:52:01.910Z,1
2022-09-12T05:02:02.048Z,1
2022-09-12T05:12:04.479Z,1
2022-09-12T05:22:01.993Z,4
2022-09-12T05:32:01.900Z,34
2022-09-12T05:42:01.983Z,52
2022-09-12T05:52:02.110Z,63
2022-09-12T06:02:02.039Z,66
2022-09-12T06:12:02.109Z,68
2022-09-12T06:22:01.990Z,77
2022-09-12T06:32:02.100Z,82
2022-09-12T06:42:01.962Z,73
2022-09-12T06:52:02.096Z,70
2022-09-12T07:02:02.044Z,80
2022-09-12T07:12:02.078Z,87
2022-09-12T07:22:02.163Z,85
2022-09-12T07:32:02.087Z,84
2022-09-12T07:42:02.166Z,82
2022-09-12T07:52:02.087Z,91
2022-09-12T08:02:02.213Z,91
2022-09-12T08:12:02.095Z,87
2022-09-12T08:22:02.175Z,91
2022-09-12T08:32:02.083Z,92
2022-09-12T08:42:02.251Z,90
2022-09-12T08:52:02.290Z,91
2022-09-12T09:02:02.268Z,92
2022-09-12T09:12:02.154Z,94
2022-09-12T09:22:02.352Z,95
2022-09-12T09:32:02.165Z,95
2022-09-12T09:42:02.216Z,96
2022-09-12T09:52:02.479Z,96
2022-09-12T10:02:02.313Z,97
2022-09-12T10:12:02.351Z,97
2022-09-12T10:22:02.207Z,97
2022-09-12T10:32:02.333Z,96
2022-09-12T10:42:02.214Z,96
2022-09-12T10:52:02.370Z,97
2022-09-12T11:02:02.444Z,97
2022-09-12T11:12:02.323Z,96
2022-09-12T11:22:02.403Z,96
2022-09-12T11:32:02.362Z,97
2022-09-12T11:42:02.415Z,96
2022-09-12T11:52:02.339Z,96
2022-09-12T12:02:02.475Z,96
2022-09-12T12:12:02.331Z,96
2022-09-12T12:22:02.403Z,94
2022-09-12T12:32:02.582Z,94
2022-09-12T12:42:02.397Z,94
2022-09-12T12:52:02.500Z,95
2022-09-12T13:02:02.468Z,96
2022-09-12T13:12:02.507Z,95
2022-09-12T13:22:02.378Z,94
2022-09-12T13:32:02.560Z,93
2022-09-12T13:42:02.841Z,91
2022-09-12T13:52:02.748Z,91
2022-09-12T14:02:02.626Z,93
2022-09-12T14:12:02.486Z,93
2022-09-12T14:22:02.555Z,95
2022-09-12T14:32:02.490Z,93
2022-09-12T14:42:02.557Z,92
2022-09-12T14:52:02.470Z,93
2022-09-12T15:02:02.585Z,88
2022-09-12T15:12:02.504Z,91
2022-09-12T15:22:02.580Z,91
2022-09-12T15:32:02.782Z,92
2022-09-12T15:42:02.597Z,90
2022-09-12T15:52:02.831Z,91
2022-09-12T16:02:02.672Z,89
2022-09-12T16:12:02.707Z,88
2022-09-12T16:22:02.584Z,90
2022-09-12T16:32:02.920Z,89
2022-09-12T16:42:02.743Z,90
2022-09-12T16:52:04.046Z,92
2022-09-12T17:02:02.772Z,90
2022-09-12T17:12:02.735Z,86
2022-09-12T17:22:02.799Z,86
2022-09-12T17:32:02.738Z,87
2022-09-12T17:42:02.800Z,81
2022-09-12T17:52:02.700Z,84
2022-09-12T18:02:03.077Z,85
2022-09-12T18:12:02.809Z,83
2022-09-12T18:22:02.808Z,70
2022-09-12T18:32:02.820Z,61
2022-09-12T18:42:02.706Z,46
2022-09-12T18:52:02.830Z,22
2022-09-12T19:02:02.780Z,7
2022-09-12T19:12:02.812Z,2
2022-09-12T19:22:02.898Z,1
2022-09-12T19:32:02.939Z,1
2022-09-12T19:42:02.895Z,1
2022-09-12T19:52:02.940Z,1
2022-09-12T20:02:02.970Z,1
2022-09-12T20:12:02.811Z,1
2022-09-12T20:22:02.886Z,1
2022-09-12T20:32:02.815Z,1
2022-09-12T20:42:02.974Z,1
2022-09-12T20:52:03.072Z,1
2022-09-12T21:02:03.145Z,1
2022-09-12T21:12:02.920Z,1
2022-09-12T21:22:03.023Z,1
2022-09-12T21:32:02.904Z,1
2022-09-12T21:42:03.016Z,1
2022-09-12T21:52:02.882Z,1
2022-09-12T22:02:03.061Z,1
2022-09-12T22:12:03.103Z,1
2022-09-12T22:22:03.136Z,1
2022-09-12T22:32:03.091Z,1
2022-09-12T22:42:02.950Z,1
2022-09-12T22:52:03.079Z,1
2022-09-12T23:02:02.956Z,1
2022-09-12T23:12:03.081Z,1
2022-09-12T23:22:02.953Z,1
2022-09-12T23:32:03.096Z,1
2022-09-12T23:42:03.146Z,1
2022-09-12T23:52:03.068Z,1
